sensor_id;sensor_type;location;lat;lon;timestamp;P1;durP1;ratioP1;P2;durP2;ratioP2
52724;SDS011;38621;52.830;6.914;2023-04-15T00:00:03;4.55;;;2.80;;
52724;SDS011;38621;52.830;6.914;2023-04-15T00:02:29;4.32;;;2.90;;
52724;SDS011;38621;52.830;6.914;2023-04-15T00:04:55;5.57;;;2.50;;
52724;SDS011;38621;52.830;6.914;2023-04-15T00:07:20;5.68;;;2.92;;
52724;SDS011;38621;52.830;6.914;2023-04-15T00:09:46;5.88;;;2.85;;
52724;SDS011;38621;52.830;6.914;2023-04-15T00:12:12;5.03;;;2.60;;
52724;SDS011;38621;52.830;6.914;2023-04-15T00:14:37;6.68;;;2.90;;
52724;SDS011;38621;52.830;6.914;2023-04-15T00:17:03;4.15;;;2.78;;
52724;SDS011;38621;52.830;6.914;2023-04-15T00:19:29;7.40;;;3.05;;
52724;SDS011;38621;52.830;6.914;2023-04-15T00:21:55;4.63;;;2.92;;
52724;SDS011;38621;52.830;6.914;2023-04-15T00:24:21;4.55;;;3.00;;
52724;SDS011;38621;52.830;6.914;2023-04-15T00:26:48;4.25;;;2.60;;
52724;SDS011;38621;52.830;6.914;2023-04-15T00:29:13;6.28;;;3.05;;
52724;SDS011;38621;52.830;6.914;2023-04-15T00:31:39;4.38;;;3.05;;
52724;SDS011;38621;52.830;6.914;2023-04-15T00:34:06;5.50;;;2.95;;
52724;SDS011;38621;52.830;6.914;2023-04-15T00:36:32;4.15;;;2.65;;
52724;SDS011;38621;52.830;6.914;2023-04-15T00:38:59;4.95;;;2.70;;
52724;SDS011;38621;52.830;6.914;2023-04-15T00:41:25;4.47;;;2.53;;
52724;SDS011;38621;52.830;6.914;2023-04-15T00:43:50;6.32;;;3.90;;
52724;SDS011;38621;52.830;6.914;2023-04-15T00:46:16;6.97;;;3.00;;
52724;SDS011;38621;52.830;6.914;2023-04-15T00:48:45;4.38;;;2.53;;
52724;SDS011;38621;52.830;6.914;2023-04-15T00:51:12;5.88;;;2.90;;
52724;SDS011;38621;52.830;6.914;2023-04-15T00:53:38;5.13;;;2.97;;
52724;SDS011;38621;52.830;6.914;2023-04-15T00:56:05;5.05;;;2.95;;
52724;SDS011;38621;52.830;6.914;2023-04-15T00:58:31;6.65;;;3.05;;
52724;SDS011;38621;52.830;6.914;2023-04-15T01:00:57;6.15;;;3.30;;
52724;SDS011;38621;52.830;6.914;2023-04-15T01:03:23;10.43;;;3.88;;
52724;SDS011;38621;52.830;6.914;2023-04-15T01:05:49;6.45;;;3.65;;
52724;SDS011;38621;52.830;6.914;2023-04-15T01:08:22;4.50;;;3.40;;
52724;SDS011;38621;52.830;6.914;2023-04-15T01:10:51;5.90;;;3.42;;
52724;SDS011;38621;52.830;6.914;2023-04-15T01:13:19;6.63;;;3.38;;
52724;SDS011;38621;52.830;6.914;2023-04-15T01:15:46;5.82;;;3.40;;
52724;SDS011;38621;52.830;6.914;2023-04-15T01:18:11;4.93;;;3.42;;
52724;SDS011;38621;52.830;6.914;2023-04-15T01:20:37;5.97;;;3.90;;
52724;SDS011;38621;52.830;6.914;2023-04-15T01:23:03;7.43;;;3.35;;
52724;SDS011;38621;52.830;6.914;2023-04-15T01:25:30;5.95;;;3.67;;
52724;SDS011;38621;52.830;6.914;2023-04-15T01:27:57;5.60;;;3.30;;
52724;SDS011;38621;52.830;6.914;2023-04-15T01:30:23;5.30;;;3.03;;
52724;SDS011;38621;52.830;6.914;2023-04-15T01:32:50;6.75;;;3.65;;
52724;SDS011;38621;52.830;6.914;2023-04-15T01:35:16;5.93;;;3.60;;
52724;SDS011;38621;52.830;6.914;2023-04-15T01:37:42;4.53;;;3.22;;
52724;SDS011;38621;52.830;6.914;2023-04-15T01:40:08;5.00;;;3.33;;
52724;SDS011;38621;52.830;6.914;2023-04-15T01:42:34;5.70;;;3.28;;
52724;SDS011;38621;52.830;6.914;2023-04-15T01:45:00;5.85;;;3.65;;
52724;SDS011;38621;52.830;6.914;2023-04-15T01:47:26;5.43;;;3.40;;
52724;SDS011;38621;52.830;6.914;2023-04-15T01:49:52;6.00;;;3.85;;
52724;SDS011;38621;52.830;6.914;2023-04-15T01:52:18;6.05;;;3.45;;
52724;SDS011;38621;52.830;6.914;2023-04-15T01:54:43;5.00;;;3.72;;
52724;SDS011;38621;52.830;6.914;2023-04-15T01:57:09;7.97;;;3.50;;
52724;SDS011;38621;52.830;6.914;2023-04-15T01:59:35;6.53;;;3.42;;
52724;SDS011;38621;52.830;6.914;2023-04-15T02:02:01;5.35;;;3.60;;
52724;SDS011;38621;52.830;6.914;2023-04-15T02:04:26;7.97;;;3.50;;
52724;SDS011;38621;52.830;6.914;2023-04-15T02:06:52;5.20;;;3.25;;
52724;SDS011;38621;52.830;6.914;2023-04-15T02:09:18;5.35;;;3.53;;
52724;SDS011;38621;52.830;6.914;2023-04-15T02:11:44;6.10;;;3.70;;
52724;SDS011;38621;52.830;6.914;2023-04-15T02:14:10;7.53;;;3.72;;
52724;SDS011;38621;52.830;6.914;2023-04-15T02:16:35;5.25;;;3.60;;
52724;SDS011;38621;52.830;6.914;2023-04-15T02:19:01;12.07;;;4.60;;
52724;SDS011;38621;52.830;6.914;2023-04-15T02:21:28;5.15;;;3.55;;
52724;SDS011;38621;52.830;6.914;2023-04-15T02:23:54;6.28;;;3.97;;
52724;SDS011;38621;52.830;6.914;2023-04-15T02:26:20;7.43;;;3.80;;
52724;SDS011;38621;52.830;6.914;2023-04-15T02:28:46;6.78;;;4.28;;
52724;SDS011;38621;52.830;6.914;2023-04-15T02:31:13;5.30;;;3.55;;
52724;SDS011;38621;52.830;6.914;2023-04-15T02:33:38;5.45;;;3.67;;
52724;SDS011;38621;52.830;6.914;2023-04-15T02:36:04;5.78;;;3.88;;
52724;SDS011;38621;52.830;6.914;2023-04-15T02:38:31;5.80;;;3.38;;
52724;SDS011;38621;52.830;6.914;2023-04-15T02:40:57;7.32;;;4.13;;
52724;SDS011;38621;52.830;6.914;2023-04-15T02:43:23;5.40;;;3.70;;
52724;SDS011;38621;52.830;6.914;2023-04-15T02:45:49;4.72;;;3.33;;
52724;SDS011;38621;52.830;6.914;2023-04-15T02:48:15;5.82;;;4.25;;
52724;SDS011;38621;52.830;6.914;2023-04-15T02:50:44;4.93;;;3.30;;
52724;SDS011;38621;52.830;6.914;2023-04-15T02:53:10;6.30;;;4.45;;
52724;SDS011;38621;52.830;6.914;2023-04-15T02:55:37;5.40;;;3.45;;
52724;SDS011;38621;52.830;6.914;2023-04-15T02:58:03;5.75;;;3.55;;
52724;SDS011;38621;52.830;6.914;2023-04-15T03:00:28;5.43;;;3.22;;
52724;SDS011;38621;52.830;6.914;2023-04-15T03:02:59;4.47;;;3.40;;
52724;SDS011;38621;52.830;6.914;2023-04-15T03:05:26;6.95;;;4.28;;
52724;SDS011;38621;52.830;6.914;2023-04-15T03:07:52;8.43;;;4.45;;
52724;SDS011;38621;52.830;6.914;2023-04-15T03:10:18;6.50;;;4.63;;
52724;SDS011;38621;52.830;6.914;2023-04-15T03:12:44;7.97;;;4.97;;
52724;SDS011;38621;52.830;6.914;2023-04-15T03:15:10;7.00;;;4.65;;
52724;SDS011;38621;52.830;6.914;2023-04-15T03:17:36;5.78;;;4.28;;
52724;SDS011;38621;52.830;6.914;2023-04-15T03:20:02;7.45;;;4.72;;
52724;SDS011;38621;52.830;6.914;2023-04-15T03:22:32;6.68;;;4.25;;
52724;SDS011;38621;52.830;6.914;2023-04-15T03:24:58;6.07;;;3.80;;
52724;SDS011;38621;52.830;6.914;2023-04-15T03:27:24;5.72;;;4.00;;
52724;SDS011;38621;52.830;6.914;2023-04-15T03:29:50;7.40;;;4.97;;
52724;SDS011;38621;52.830;6.914;2023-04-15T03:32:16;6.43;;;3.92;;
52724;SDS011;38621;52.830;6.914;2023-04-15T03:34:42;7.47;;;5.00;;
52724;SDS011;38621;52.830;6.914;2023-04-15T03:37:08;7.65;;;5.13;;
52724;SDS011;38621;52.830;6.914;2023-04-15T03:39:34;6.90;;;3.88;;
52724;SDS011;38621;52.830;6.914;2023-04-15T03:41:59;6.78;;;3.80;;
52724;SDS011;38621;52.830;6.914;2023-04-15T03:44:26;6.75;;;4.45;;
52724;SDS011;38621;52.830;6.914;2023-04-15T03:46:52;6.00;;;4.07;;
52724;SDS011;38621;52.830;6.914;2023-04-15T03:49:18;7.00;;;5.03;;
52724;SDS011;38621;52.830;6.914;2023-04-15T03:51:44;10.23;;;5.07;;
52724;SDS011;38621;52.830;6.914;2023-04-15T03:54:10;5.57;;;4.13;;
52724;SDS011;38621;52.830;6.914;2023-04-15T03:56:38;7.40;;;4.70;;
52724;SDS011;38621;52.830;6.914;2023-04-15T03:59:04;6.55;;;4.10;;
52724;SDS011;38621;52.830;6.914;2023-04-15T04:01:30;7.20;;;4.20;;
52724;SDS011;38621;52.830;6.914;2023-04-15T04:03:55;6.25;;;4.10;;
52724;SDS011;38621;52.830;6.914;2023-04-15T04:06:21;7.18;;;4.95;;
52724;SDS011;38621;52.830;6.914;2023-04-15T04:08:47;7.68;;;4.82;;
52724;SDS011;38621;52.830;6.914;2023-04-15T04:11:12;6.63;;;4.85;;
52724;SDS011;38621;52.830;6.914;2023-04-15T04:13:38;7.80;;;5.30;;
52724;SDS011;38621;52.830;6.914;2023-04-15T04:16:04;6.55;;;4.55;;
52724;SDS011;38621;52.830;6.914;2023-04-15T04:18:31;7.47;;;5.20;;
52724;SDS011;38621;52.830;6.914;2023-04-15T04:20:57;7.35;;;5.07;;
52724;SDS011;38621;52.830;6.914;2023-04-15T04:23:22;8.60;;;5.18;;
52724;SDS011;38621;52.830;6.914;2023-04-15T04:25:48;8.95;;;5.13;;
52724;SDS011;38621;52.830;6.914;2023-04-15T04:28:13;9.68;;;5.60;;
52724;SDS011;38621;52.830;6.914;2023-04-15T04:30:39;7.78;;;4.97;;
52724;SDS011;38621;52.830;6.914;2023-04-15T04:33:08;8.10;;;5.20;;
52724;SDS011;38621;52.830;6.914;2023-04-15T04:35:33;8.02;;;5.88;;
52724;SDS011;38621;52.830;6.914;2023-04-15T04:38:01;8.35;;;5.43;;
52724;SDS011;38621;52.830;6.914;2023-04-15T04:40:28;8.18;;;6.05;;
52724;SDS011;38621;52.830;6.914;2023-04-15T04:42:53;8.00;;;5.25;;
52724;SDS011;38621;52.830;6.914;2023-04-15T04:45:19;9.98;;;6.28;;
52724;SDS011;38621;52.830;6.914;2023-04-15T04:47:45;10.10;;;5.70;;
52724;SDS011;38621;52.830;6.914;2023-04-15T04:50:12;10.35;;;5.82;;
52724;SDS011;38621;52.830;6.914;2023-04-15T04:52:37;8.55;;;5.28;;
52724;SDS011;38621;52.830;6.914;2023-04-15T04:55:03;8.93;;;5.93;;
52724;SDS011;38621;52.830;6.914;2023-04-15T04:57:29;9.35;;;6.05;;
52724;SDS011;38621;52.830;6.914;2023-04-15T04:59:55;9.57;;;5.80;;
52724;SDS011;38621;52.830;6.914;2023-04-15T05:02:21;9.10;;;5.88;;
52724;SDS011;38621;52.830;6.914;2023-04-15T05:04:47;8.95;;;6.35;;
52724;SDS011;38621;52.830;6.914;2023-04-15T05:07:14;10.52;;;6.07;;
52724;SDS011;38621;52.830;6.914;2023-04-15T05:09:40;8.65;;;5.95;;
52724;SDS011;38621;52.830;6.914;2023-04-15T05:12:06;10.48;;;6.63;;
52724;SDS011;38621;52.830;6.914;2023-04-15T05:14:33;10.25;;;6.60;;
52724;SDS011;38621;52.830;6.914;2023-04-15T05:16:58;9.85;;;6.30;;
52724;SDS011;38621;52.830;6.914;2023-04-15T05:19:24;12.38;;;7.15;;
52724;SDS011;38621;52.830;6.914;2023-04-15T05:21:50;11.80;;;7.35;;
52724;SDS011;38621;52.830;6.914;2023-04-15T05:24:16;9.32;;;6.35;;
52724;SDS011;38621;52.830;6.914;2023-04-15T05:26:42;10.80;;;6.78;;
52724;SDS011;38621;52.830;6.914;2023-04-15T05:29:08;13.30;;;7.75;;
52724;SDS011;38621;52.830;6.914;2023-04-15T05:31:33;10.60;;;7.03;;
52724;SDS011;38621;52.830;6.914;2023-04-15T05:33:59;13.13;;;7.40;;
52724;SDS011;38621;52.830;6.914;2023-04-15T05:36:25;10.43;;;6.70;;
52724;SDS011;38621;52.830;6.914;2023-04-15T05:38:52;9.82;;;6.50;;
52724;SDS011;38621;52.830;6.914;2023-04-15T05:41:18;12.25;;;6.85;;
52724;SDS011;38621;52.830;6.914;2023-04-15T05:43:44;11.55;;;7.22;;
52724;SDS011;38621;52.830;6.914;2023-04-15T05:46:09;12.18;;;7.18;;
52724;SDS011;38621;52.830;6.914;2023-04-15T05:48:35;10.98;;;7.45;;
52724;SDS011;38621;52.830;6.914;2023-04-15T05:51:01;10.23;;;6.75;;
52724;SDS011;38621;52.830;6.914;2023-04-15T05:53:26;10.30;;;7.20;;
52724;SDS011;38621;52.830;6.914;2023-04-15T05:55:52;11.88;;;7.45;;
52724;SDS011;38621;52.830;6.914;2023-04-15T05:58:18;10.52;;;6.35;;
52724;SDS011;38621;52.830;6.914;2023-04-15T06:00:43;11.68;;;7.63;;
52724;SDS011;38621;52.830;6.914;2023-04-15T06:03:10;12.98;;;7.47;;
52724;SDS011;38621;52.830;6.914;2023-04-15T06:05:35;10.82;;;7.30;;
52724;SDS011;38621;52.830;6.914;2023-04-15T06:08:01;11.80;;;7.20;;
52724;SDS011;38621;52.830;6.914;2023-04-15T06:10:27;12.23;;;7.65;;
52724;SDS011;38621;52.830;6.914;2023-04-15T06:12:53;11.90;;;7.40;;
52724;SDS011;38621;52.830;6.914;2023-04-15T06:15:18;10.38;;;7.28;;
52724;SDS011;38621;52.830;6.914;2023-04-15T06:17:44;12.32;;;7.65;;
52724;SDS011;38621;52.830;6.914;2023-04-15T06:20:10;11.35;;;7.25;;
52724;SDS011;38621;52.830;6.914;2023-04-15T06:22:36;11.18;;;7.10;;
52724;SDS011;38621;52.830;6.914;2023-04-15T06:25:03;10.90;;;6.90;;
52724;SDS011;38621;52.830;6.914;2023-04-15T06:27:29;10.30;;;6.97;;
52724;SDS011;38621;52.830;6.914;2023-04-15T06:29:55;11.05;;;7.25;;
52724;SDS011;38621;52.830;6.914;2023-04-15T06:32:20;11.50;;;7.20;;
52724;SDS011;38621;52.830;6.914;2023-04-15T06:34:46;10.70;;;6.72;;
52724;SDS011;38621;52.830;6.914;2023-04-15T06:37:12;11.15;;;7.20;;
52724;SDS011;38621;52.830;6.914;2023-04-15T06:39:40;12.07;;;7.13;;
52724;SDS011;38621;52.830;6.914;2023-04-15T06:42:07;10.73;;;6.95;;
52724;SDS011;38621;52.830;6.914;2023-04-15T06:44:33;10.40;;;6.68;;
52724;SDS011;38621;52.830;6.914;2023-04-15T06:46:59;11.25;;;6.82;;
52724;SDS011;38621;52.830;6.914;2023-04-15T06:49:25;10.07;;;6.80;;
52724;SDS011;38621;52.830;6.914;2023-04-15T06:51:50;11.20;;;6.78;;
52724;SDS011;38621;52.830;6.914;2023-04-15T06:54:16;10.88;;;6.85;;
52724;SDS011;38621;52.830;6.914;2023-04-15T06:56:42;10.15;;;6.68;;
52724;SDS011;38621;52.830;6.914;2023-04-15T06:59:08;10.57;;;6.57;;
52724;SDS011;38621;52.830;6.914;2023-04-15T07:01:34;9.75;;;6.82;;
52724;SDS011;38621;52.830;6.914;2023-04-15T07:03:59;9.35;;;6.15;;
52724;SDS011;38621;52.830;6.914;2023-04-15T07:06:25;11.88;;;6.65;;
52724;SDS011;38621;52.830;6.914;2023-04-15T07:08:51;10.80;;;6.40;;
52724;SDS011;38621;52.830;6.914;2023-04-15T07:11:18;9.60;;;5.95;;
52724;SDS011;38621;52.830;6.914;2023-04-15T07:13:45;10.20;;;5.45;;
52724;SDS011;38621;52.830;6.914;2023-04-15T07:16:10;7.68;;;5.25;;
52724;SDS011;38621;52.830;6.914;2023-04-15T07:18:36;7.15;;;4.65;;
52724;SDS011;38621;52.830;6.914;2023-04-15T07:21:02;7.35;;;5.07;;
52724;SDS011;38621;52.830;6.914;2023-04-15T07:23:27;7.07;;;4.60;;
52724;SDS011;38621;52.830;6.914;2023-04-15T07:25:53;7.80;;;4.60;;
52724;SDS011;38621;52.830;6.914;2023-04-15T07:28:19;6.40;;;4.07;;
52724;SDS011;38621;52.830;6.914;2023-04-15T07:30:45;6.10;;;4.00;;
52724;SDS011;38621;52.830;6.914;2023-04-15T07:33:11;7.38;;;4.80;;
52724;SDS011;38621;52.830;6.914;2023-04-15T07:35:36;8.02;;;4.35;;
52724;SDS011;38621;52.830;6.914;2023-04-15T07:38:02;7.20;;;4.28;;
52724;SDS011;38621;52.830;6.914;2023-04-15T07:40:28;6.60;;;4.70;;
52724;SDS011;38621;52.830;6.914;2023-04-15T07:42:55;6.32;;;4.13;;
52724;SDS011;38621;52.830;6.914;2023-04-15T07:45:22;6.85;;;4.28;;
52724;SDS011;38621;52.830;6.914;2023-04-15T07:47:48;8.25;;;4.25;;
52724;SDS011;38621;52.830;6.914;2023-04-15T07:50:15;6.55;;;4.75;;
52724;SDS011;38621;52.830;6.914;2023-04-15T07:52:41;6.45;;;4.13;;
52724;SDS011;38621;52.830;6.914;2023-04-15T07:55:08;7.25;;;4.45;;
52724;SDS011;38621;52.830;6.914;2023-04-15T07:57:34;7.72;;;4.72;;
52724;SDS011;38621;52.830;6.914;2023-04-15T08:00:01;8.02;;;3.83;;
52724;SDS011;38621;52.830;6.914;2023-04-15T08:02:30;5.78;;;4.00;;
52724;SDS011;38621;52.830;6.914;2023-04-15T08:04:56;6.25;;;4.22;;
52724;SDS011;38621;52.830;6.914;2023-04-15T08:07:22;6.40;;;4.13;;
52724;SDS011;38621;52.830;6.914;2023-04-15T08:09:49;6.28;;;4.07;;
52724;SDS011;38621;52.830;6.914;2023-04-15T08:12:15;5.53;;;3.85;;
52724;SDS011;38621;52.830;6.914;2023-04-15T08:14:41;6.78;;;4.15;;
52724;SDS011;38621;52.830;6.914;2023-04-15T08:17:07;6.57;;;3.97;;
52724;SDS011;38621;52.830;6.914;2023-04-15T08:19:32;5.57;;;3.75;;
52724;SDS011;38621;52.830;6.914;2023-04-15T08:21:58;4.75;;;3.13;;
52724;SDS011;38621;52.830;6.914;2023-04-15T08:24:24;4.90;;;2.95;;
52724;SDS011;38621;52.830;6.914;2023-04-15T08:26:50;4.30;;;3.03;;
52724;SDS011;38621;52.830;6.914;2023-04-15T08:29:16;5.43;;;3.30;;
52724;SDS011;38621;52.830;6.914;2023-04-15T08:31:42;4.82;;;3.15;;
52724;SDS011;38621;52.830;6.914;2023-04-15T08:34:10;4.15;;;2.90;;
52724;SDS011;38621;52.830;6.914;2023-04-15T08:36:39;3.38;;;2.25;;
52724;SDS011;38621;52.830;6.914;2023-04-15T08:39:05;5.00;;;2.85;;
52724;SDS011;38621;52.830;6.914;2023-04-15T08:41:44;4.15;;;2.90;;
52724;SDS011;38621;52.830;6.914;2023-04-15T08:44:12;3.95;;;2.45;;
52724;SDS011;38621;52.830;6.914;2023-04-15T08:46:38;5.55;;;2.75;;
52724;SDS011;38621;52.830;6.914;2023-04-15T08:49:07;4.47;;;2.78;;
52724;SDS011;38621;52.830;6.914;2023-04-15T08:51:35;3.72;;;2.78;;
52724;SDS011;38621;52.830;6.914;2023-04-15T08:54:02;5.63;;;2.70;;
52724;SDS011;38621;52.830;6.914;2023-04-15T08:56:29;6.53;;;2.80;;
52724;SDS011;38621;52.830;6.914;2023-04-15T08:58:57;3.80;;;2.38;;
52724;SDS011;38621;52.830;6.914;2023-04-15T09:01:23;3.13;;;2.13;;
52724;SDS011;38621;52.830;6.914;2023-04-15T09:03:50;5.18;;;2.90;;
52724;SDS011;38621;52.830;6.914;2023-04-15T09:06:19;3.75;;;2.50;;
52724;SDS011;38621;52.830;6.914;2023-04-15T09:08:45;4.43;;;2.20;;
52724;SDS011;38621;52.830;6.914;2023-04-15T09:11:11;4.18;;;2.53;;
52724;SDS011;38621;52.830;6.914;2023-04-15T09:13:37;6.28;;;2.67;;
52724;SDS011;38621;52.830;6.914;2023-04-15T09:16:04;5.63;;;2.47;;
52724;SDS011;38621;52.830;6.914;2023-04-15T09:18:31;4.85;;;2.28;;
52724;SDS011;38621;52.830;6.914;2023-04-15T09:21:05;4.50;;;2.45;;
52724;SDS011;38621;52.830;6.914;2023-04-15T09:23:33;3.58;;;2.25;;
52724;SDS011;38621;52.830;6.914;2023-04-15T09:26:00;3.70;;;2.53;;
52724;SDS011;38621;52.830;6.914;2023-04-15T09:28:27;4.63;;;2.55;;
52724;SDS011;38621;52.830;6.914;2023-04-15T09:30:56;3.60;;;2.30;;
52724;SDS011;38621;52.830;6.914;2023-04-15T09:33:23;4.07;;;2.35;;
52724;SDS011;38621;52.830;6.914;2023-04-15T09:35:58;3.17;;;2.25;;
52724;SDS011;38621;52.830;6.914;2023-04-15T09:38:25;4.05;;;2.10;;
52724;SDS011;38621;52.830;6.914;2023-04-15T09:40:51;3.05;;;2.00;;
52724;SDS011;38621;52.830;6.914;2023-04-15T09:43:17;4.68;;;2.20;;
52724;SDS011;38621;52.830;6.914;2023-04-15T09:45:47;4.18;;;2.17;;
52724;SDS011;38621;52.830;6.914;2023-04-15T09:48:19;3.38;;;1.92;;
52724;SDS011;38621;52.830;6.914;2023-04-15T09:50:46;4.03;;;2.05;;
52724;SDS011;38621;52.830;6.914;2023-04-15T09:53:21;3.58;;;1.90;;
52724;SDS011;38621;52.830;6.914;2023-04-15T09:55:49;2.95;;;1.92;;
52724;SDS011;38621;52.830;6.914;2023-04-15T09:58:22;3.00;;;1.70;;
52724;SDS011;38621;52.830;6.914;2023-04-15T10:00:50;2.85;;;2.10;;
52724;SDS011;38621;52.830;6.914;2023-04-15T10:03:21;2.83;;;1.90;;
52724;SDS011;38621;52.830;6.914;2023-04-15T10:05:47;3.92;;;2.00;;
52724;SDS011;38621;52.830;6.914;2023-04-15T10:08:18;3.20;;;1.90;;
52724;SDS011;38621;52.830;6.914;2023-04-15T10:10:46;3.20;;;1.55;;
52724;SDS011;38621;52.830;6.914;2023-04-15T10:13:13;2.80;;;1.67;;
52724;SDS011;38621;52.830;6.914;2023-04-15T10:15:42;3.75;;;2.00;;
52724;SDS011;38621;52.830;6.914;2023-04-15T10:18:10;3.75;;;1.50;;
52724;SDS011;38621;52.830;6.914;2023-04-15T10:20:40;4.28;;;2.05;;
52724;SDS011;38621;52.830;6.914;2023-04-15T10:23:07;2.88;;;1.77;;
52724;SDS011;38621;52.830;6.914;2023-04-15T10:25:33;3.28;;;1.83;;
52724;SDS011;38621;52.830;6.914;2023-04-15T10:28:00;3.65;;;1.80;;
52724;SDS011;38621;52.830;6.914;2023-04-15T10:30:26;4.00;;;1.58;;
52724;SDS011;38621;52.830;6.914;2023-04-15T10:32:52;3.92;;;1.73;;
52724;SDS011;38621;52.830;6.914;2023-04-15T10:35:19;2.60;;;1.50;;
52724;SDS011;38621;52.830;6.914;2023-04-15T10:37:46;2.47;;;1.55;;
52724;SDS011;38621;52.830;6.914;2023-04-15T10:43:02;4.07;;;2.28;;
52724;SDS011;38621;52.830;6.914;2023-04-15T10:45:31;3.20;;;1.77;;
52724;SDS011;38621;52.830;6.914;2023-04-15T10:48:01;3.40;;;1.95;;
52724;SDS011;38621;52.830;6.914;2023-04-15T10:50:29;3.50;;;2.15;;
52724;SDS011;38621;52.830;6.914;2023-04-15T10:52:56;2.92;;;1.63;;
52724;SDS011;38621;52.830;6.914;2023-04-15T10:55:26;3.75;;;1.67;;
52724;SDS011;38621;52.830;6.914;2023-04-15T10:57:59;3.00;;;1.80;;
52724;SDS011;38621;52.830;6.914;2023-04-15T11:00:27;2.63;;;1.88;;
52724;SDS011;38621;52.830;6.914;2023-04-15T11:08:10;3.47;;;1.70;;
52724;SDS011;38621;52.830;6.914;2023-04-15T11:13:04;2.67;;;1.52;;
52724;SDS011;38621;52.830;6.914;2023-04-15T11:15:40;3.13;;;1.75;;
52724;SDS011;38621;52.830;6.914;2023-04-15T11:18:17;2.97;;;1.45;;
52724;SDS011;38621;52.830;6.914;2023-04-15T11:23:19;2.40;;;1.40;;
52724;SDS011;38621;52.830;6.914;2023-04-15T11:25:53;2.92;;;1.42;;
52724;SDS011;38621;52.830;6.914;2023-04-15T11:28:22;2.05;;;1.10;;
52724;SDS011;38621;52.830;6.914;2023-04-15T11:30:53;3.00;;;1.30;;
52724;SDS011;38621;52.830;6.914;2023-04-15T11:33:19;2.63;;;1.50;;
52724;SDS011;38621;52.830;6.914;2023-04-15T11:35:46;2.78;;;1.42;;
52724;SDS011;38621;52.830;6.914;2023-04-15T11:38:12;4.40;;;1.40;;
52724;SDS011;38621;52.830;6.914;2023-04-15T11:40:39;2.50;;;1.40;;
52724;SDS011;38621;52.830;6.914;2023-04-15T11:45:35;3.20;;;1.45;;
52724;SDS011;38621;52.830;6.914;2023-04-15T11:48:08;2.35;;;1.42;;
52724;SDS011;38621;52.830;6.914;2023-04-15T11:50:36;3.83;;;1.40;;
52724;SDS011;38621;52.830;6.914;2023-04-15T11:53:05;3.75;;;1.77;;
52724;SDS011;38621;52.830;6.914;2023-04-15T11:55:41;3.03;;;1.50;;
52724;SDS011;38621;52.830;6.914;2023-04-15T11:58:09;2.45;;;1.50;;
52724;SDS011;38621;52.830;6.914;2023-04-15T12:00:37;2.03;;;1.40;;
52724;SDS011;38621;52.830;6.914;2023-04-15T12:03:10;6.07;;;1.77;;
52724;SDS011;38621;52.830;6.914;2023-04-15T12:11:20;2.40;;;1.50;;
52724;SDS011;38621;52.830;6.914;2023-04-15T12:14:02;4.35;;;1.48;;
52724;SDS011;38621;52.830;6.914;2023-04-15T12:16:30;3.58;;;1.40;;
52724;SDS011;38621;52.830;6.914;2023-04-15T12:18:58;3.60;;;1.70;;
52724;SDS011;38621;52.830;6.914;2023-04-15T12:21:25;2.83;;;1.50;;
52724;SDS011;38621;52.830;6.914;2023-04-15T12:23:53;3.45;;;1.75;;
52724;SDS011;38621;52.830;6.914;2023-04-15T12:26:54;3.70;;;1.70;;
52724;SDS011;38621;52.830;6.914;2023-04-15T12:29:14;4.35;;;2.00;;
52724;SDS011;38621;52.830;6.914;2023-04-15T12:31:51;5.50;;;1.77;;
52724;SDS011;38621;52.830;6.914;2023-04-15T12:34:28;6.70;;;1.70;;
52724;SDS011;38621;52.830;6.914;2023-04-15T12:37:03;2.13;;;1.10;;
52724;SDS011;38621;52.830;6.914;2023-04-15T12:39:39;2.50;;;1.55;;
52724;SDS011;38621;52.830;6.914;2023-04-15T12:42:06;3.45;;;1.50;;
52724;SDS011;38621;52.830;6.914;2023-04-15T12:44:33;4.28;;;2.05;;
52724;SDS011;38621;52.830;6.914;2023-04-15T12:47:00;4.25;;;1.67;;
52724;SDS011;38621;52.830;6.914;2023-04-15T12:49:26;4.72;;;1.85;;
52724;SDS011;38621;52.830;6.914;2023-04-15T12:51:52;6.18;;;2.60;;
52724;SDS011;38621;52.830;6.914;2023-04-15T12:54:19;4.65;;;2.83;;
52724;SDS011;38621;52.830;6.914;2023-04-15T12:56:45;3.58;;;1.80;;
52724;SDS011;38621;52.830;6.914;2023-04-15T12:59:13;3.45;;;1.92;;
52724;SDS011;38621;52.830;6.914;2023-04-15T13:01:39;3.90;;;1.70;;
52724;SDS011;38621;52.830;6.914;2023-04-15T13:04:05;3.00;;;1.48;;
52724;SDS011;38621;52.830;6.914;2023-04-15T13:06:31;5.70;;;2.20;;
52724;SDS011;38621;52.830;6.914;2023-04-15T13:09:01;3.45;;;2.10;;
52724;SDS011;38621;52.830;6.914;2023-04-15T13:11:27;5.18;;;1.98;;
52724;SDS011;38621;52.830;6.914;2023-04-15T13:14:02;6.72;;;2.22;;
52724;SDS011;38621;52.830;6.914;2023-04-15T13:16:29;3.65;;;1.55;;
52724;SDS011;38621;52.830;6.914;2023-04-15T13:18:56;6.68;;;3.95;;
52724;SDS011;38621;52.830;6.914;2023-04-15T13:21:23;5.47;;;2.17;;
52724;SDS011;38621;52.830;6.914;2023-04-15T13:23:48;3.83;;;1.70;;
52724;SDS011;38621;52.830;6.914;2023-04-15T13:26:15;3.13;;;2.22;;
52724;SDS011;38621;52.830;6.914;2023-04-15T13:28:42;3.80;;;1.63;;
52724;SDS011;38621;52.830;6.914;2023-04-15T13:31:07;3.80;;;1.52;;
52724;SDS011;38621;52.830;6.914;2023-04-15T13:33:33;4.78;;;1.52;;
52724;SDS011;38621;52.830;6.914;2023-04-15T13:35:59;3.50;;;1.65;;
52724;SDS011;38621;52.830;6.914;2023-04-15T13:38:24;3.72;;;1.50;;
52724;SDS011;38621;52.830;6.914;2023-04-15T13:40:50;3.45;;;1.48;;
52724;SDS011;38621;52.830;6.914;2023-04-15T13:43:16;3.65;;;1.30;;
52724;SDS011;38621;52.830;6.914;2023-04-15T13:45:42;4.40;;;1.80;;
52724;SDS011;38621;52.830;6.914;2023-04-15T13:48:08;3.20;;;1.77;;
52724;SDS011;38621;52.830;6.914;2023-04-15T13:50:34;3.40;;;1.65;;
52724;SDS011;38621;52.830;6.914;2023-04-15T13:53:00;4.60;;;1.65;;
52724;SDS011;38621;52.830;6.914;2023-04-15T13:55:25;5.38;;;1.77;;
52724;SDS011;38621;52.830;6.914;2023-04-15T13:57:51;2.10;;;1.40;;
52724;SDS011;38621;52.830;6.914;2023-04-15T14:00:17;4.10;;;1.60;;
52724;SDS011;38621;52.830;6.914;2023-04-15T14:02:43;4.00;;;1.60;;
52724;SDS011;38621;52.830;6.914;2023-04-15T14:05:09;4.55;;;1.92;;
52724;SDS011;38621;52.830;6.914;2023-04-15T14:07:35;4.25;;;2.00;;
52724;SDS011;38621;52.830;6.914;2023-04-15T14:10:01;3.00;;;1.90;;
52724;SDS011;38621;52.830;6.914;2023-04-15T14:12:27;3.90;;;1.92;;
52724;SDS011;38621;52.830;6.914;2023-04-15T14:14:53;3.80;;;1.52;;
52724;SDS011;38621;52.830;6.914;2023-04-15T14:17:19;3.88;;;2.10;;
52724;SDS011;38621;52.830;6.914;2023-04-15T14:19:45;3.65;;;1.65;;
52724;SDS011;38621;52.830;6.914;2023-04-15T14:22:11;4.30;;;1.65;;
52724;SDS011;38621;52.830;6.914;2023-04-15T14:24:36;5.60;;;1.90;;
52724;SDS011;38621;52.830;6.914;2023-04-15T14:27:02;5.05;;;1.80;;
52724;SDS011;38621;52.830;6.914;2023-04-15T14:29:28;4.35;;;1.90;;
52724;SDS011;38621;52.830;6.914;2023-04-15T14:31:53;5.72;;;1.98;;
52724;SDS011;38621;52.830;6.914;2023-04-15T14:34:21;5.38;;;2.08;;
52724;SDS011;38621;52.830;6.914;2023-04-15T14:36:49;5.57;;;1.88;;
52724;SDS011;38621;52.830;6.914;2023-04-15T14:39:15;5.13;;;1.90;;
52724;SDS011;38621;52.830;6.914;2023-04-15T14:41:41;5.57;;;2.55;;
52724;SDS011;38621;52.830;6.914;2023-04-15T14:44:06;3.00;;;2.00;;
52724;SDS011;38621;52.830;6.914;2023-04-15T14:46:33;4.28;;;2.25;;
52724;SDS011;38621;52.830;6.914;2023-04-15T14:48:59;6.18;;;2.08;;
52724;SDS011;38621;52.830;6.914;2023-04-15T14:51:25;5.35;;;2.17;;
52724;SDS011;38621;52.830;6.914;2023-04-15T14:53:51;5.43;;;2.15;;
52724;SDS011;38621;52.830;6.914;2023-04-15T14:56:17;4.70;;;2.35;;
52724;SDS011;38621;52.830;6.914;2023-04-15T14:58:42;4.90;;;2.60;;
52724;SDS011;38621;52.830;6.914;2023-04-15T15:01:08;4.85;;;2.53;;
52724;SDS011;38621;52.830;6.914;2023-04-15T15:03:34;5.93;;;2.38;;